Pistol River, Oregon
Current Conditions -  °F | °C
As of 1:56 AM on Sunday 23 Nov 2014 (Local Time) from KBOK Reporting Station
Clear Clear  
Wind Chill: 46°   Ceiling: Unl
Heat Index: 46°   Visibility: 10mi
Dew Point: 46°   Wind: 0mph
Humidity: 100%   Direction: NA
Pressure: 30.36"   Gusts: NA
Location:  42.5771°N, 124.359°W
Report Text: KBOK 230956Z AUTO 00000KT 10SM CLR 08/08 A3036 RMK AO2 T00770077 SLP282
Loading
Personal Weather Stations






























Interactive Weather Map New forecast layout! Learn more

10-Day Weather Forecast

Advertisements
Track Severe Weather on mobile